Time;durP1;ratioP1;P1;durP2;ratioP2;P2;SDS_P1;SDS_P2;PMS_P1;PMS_P2;Temp;Humidity;BMP_temperature;BMP_pressure;BME280_temperature;BME280_humidity;BME280_pressure;Samples;Min_cycle;Max_cycle;Signal;HPM_P1;HPM_P2
2024/01/26 00:01:52;;;;;;;49.53;15.73;;;;;;;;;;5022070;28;20475;-76
2024/01/26 00:04:18;;;;;;;53.03;16.27;;;;;;;;;;5057205;28;20063;-77
2024/01/26 00:06:44;;;;;;;47.65;16.15;;;;;;;;;;5056995;28;20052;-77
2024/01/26 00:09:11;;;;;;;53.38;15.95;;;;;;;;;;5056770;28;20477;-76
2024/01/26 00:11:37;;;;;;;47.90;15.57;;;;;;;;;;5039307;28;20072;-79
2024/01/26 00:14:04;;;;;;;53.45;16.33;;;;;;;;;;5056731;28;20048;-76
2024/01/26 00:16:30;;;;;;;48.00;16.40;;;;;;;;;;5057589;28;20050;-76
2024/01/26 00:18:56;;;;;;;46.60;15.85;;;;;;;;;;5056637;28;20071;-78
2024/01/26 00:21:22;;;;;;;45.33;15.02;;;;;;;;;;5056632;28;20049;-76
2024/01/26 00:23:48;;;;;;;49.55;16.15;;;;;;;;;;5056480;28;20045;-76
2024/01/26 00:26:14;;;;;;;48.33;15.88;;;;;;;;;;5056489;28;20128;-76
2024/01/26 00:28:41;;;;;;;44.37;15.70;;;;;;;;;;5057316;28;20041;-78
2024/01/26 00:31:07;;;;;;;49.85;16.52;;;;;;;;;;5056798;28;20438;-77
2024/01/26 00:33:34;;;;;;;50.20;16.65;;;;;;;;;;5056440;28;20045;-76
2024/01/26 00:36:00;;;;;;;46.28;15.45;;;;;;;;;;5038915;28;20045;-78
2024/01/26 00:38:26;;;;;;;45.13;15.20;;;;;;;;;;5038989;28;20417;-76
2024/01/26 00:40:52;;;;;;;46.58;16.42;;;;;;;;;;5038824;28;20099;-77
2024/01/26 00:43:19;;;;;;;38.25;14.30;;;;;;;;;;5038874;28;20125;-79
2024/01/26 00:45:45;;;;;;;43.03;16.33;;;;;;;;;;5056665;28;20060;-76
2024/01/26 00:48:11;;;;;;;42.10;15.02;;;;;;;;;;5039148;28;20295;-77
2024/01/26 00:50:37;;;;;;;38.72;14.25;;;;;;;;;;5057190;28;20384;-79
2024/01/26 00:53:03;;;;;;;39.08;14.38;;;;;;;;;;5056151;28;20049;-78
2024/01/26 00:55:30;;;;;;;35.80;13.68;;;;;;;;;;5055758;28;20486;-77
2024/01/26 00:57:56;;;;;;;37.65;15.13;;;;;;;;;;5038285;28;20055;-76
2024/01/26 01:00:24;;;;;;;40.65;14.07;;;;;;;;;;5038092;28;20048;-77
2024/01/26 01:02:50;;;;;;;36.28;14.55;;;;;;;;;;5055746;28;20091;-75
2024/01/26 01:05:16;;;;;;;40.35;15.57;;;;;;;;;;5055799;28;20088;-76
2024/01/26 01:07:43;;;;;;;40.50;15.32;;;;;;;;;;5037969;28;20095;-79
2024/01/26 01:10:11;;;;;;;38.55;14.55;;;;;;;;;;5055816;28;20389;-76
2024/01/26 01:12:43;;;;;;;36.10;14.27;;;;;;;;;;5021550;28;20365;-75
2024/01/26 01:15:12;;;;;;;39.17;14.38;;;;;;;;;;5021757;28;20206;-76
2024/01/26 01:17:43;;;;;;;39.45;14.90;;;;;;;;;;5021853;28;20162;-77
2024/01/26 01:20:10;;;;;;;37.88;14.30;;;;;;;;;;5055243;28;20489;-76
2024/01/26 01:22:39;;;;;;;38.03;14.63;;;;;;;;;;5055503;28;20057;-77
2024/01/26 01:25:06;;;;;;;37.78;14.80;;;;;;;;;;5055187;28;20497;-77
2024/01/26 01:27:32;;;;;;;34.50;13.75;;;;;;;;;;5055471;28;20049;-77
2024/01/26 01:29:59;;;;;;;34.75;14.13;;;;;;;;;;5055251;28;20037;-78
2024/01/26 01:32:25;;;;;;;34.23;14.27;;;;;;;;;;5038850;28;20094;-78
2024/01/26 01:34:52;;;;;;;33.72;14.10;;;;;;;;;;5037869;28;20284;-79
2024/01/26 01:37:18;;;;;;;35.65;15.02;;;;;;;;;;5055354;28;20393;-77
2024/01/26 01:39:44;;;;;;;35.80;14.88;;;;;;;;;;5037394;28;20412;-75
2024/01/26 01:42:13;;;;;;;34.00;14.38;;;;;;;;;;5055116;28;20056;-79
2024/01/26 01:44:46;;;;;;;32.58;14.32;;;;;;;;;;5037196;28;20060;-79
2024/01/26 01:47:13;;;;;;;33.33;13.70;;;;;;;;;;5054913;28;20052;-77
2024/01/26 01:49:40;;;;;;;39.00;13.48;;;;;;;;;;5055773;28;20045;-77
2024/01/26 01:52:10;;;;;;;29.30;12.45;;;;;;;;;;5055122;28;20049;-78
2024/01/26 01:54:40;;;;;;;28.73;12.77;;;;;;;;;;5055665;28;20071;-76
2024/01/26 01:57:06;;;;;;;31.15;12.98;;;;;;;;;;5054945;28;20072;-77
2024/01/26 01:59:33;;;;;;;27.97;12.30;;;;;;;;;;5055167;28;20045;-76
2024/01/26 02:02:00;;;;;;;28.80;12.35;;;;;;;;;;5037926;28;20287;-77
2024/01/26 02:04:26;;;;;;;24.63;11.35;;;;;;;;;;5054813;28;20053;-77
2024/01/26 02:06:56;;;;;;;28.42;12.35;;;;;;;;;;5037290;28;20366;-78
2024/01/26 02:09:22;;;;;;;27.55;12.13;;;;;;;;;;5054793;28;20049;-75
2024/01/26 02:11:48;;;;;;;26.63;11.80;;;;;;;;;;5054696;28;20052;-75
2024/01/26 02:14:14;;;;;;;27.90;12.32;;;;;;;;;;5037738;28;20053;-76
2024/01/26 02:16:40;;;;;;;25.80;11.85;;;;;;;;;;5021216;28;20053;-78
2024/01/26 02:19:06;;;;;;;25.52;11.52;;;;;;;;;;5054040;28;20045;-77
2024/01/26 02:21:32;;;;;;;24.42;11.38;;;;;;;;;;5054516;28;20103;-75
2024/01/26 02:23:58;;;;;;;26.25;13.85;;;;;;;;;;5054253;28;20059;-76
2024/01/26 02:26:24;;;;;;;27.83;11.88;;;;;;;;;;5054676;28;20052;-77
2024/01/26 02:28:50;;;;;;;23.25;10.90;;;;;;;;;;5036492;28;20124;-77
2024/01/26 02:31:16;;;;;;;22.73;10.88;;;;;;;;;;5054431;28;20064;-77
2024/01/26 02:33:42;;;;;;;25.10;11.10;;;;;;;;;;5036606;28;20481;-79
2024/01/26 02:36:09;;;;;;;25.13;12.35;;;;;;;;;;5054378;28;20048;-77
2024/01/26 02:38:35;;;;;;;22.98;10.13;;;;;;;;;;5036706;28;20140;-79
2024/01/26 02:41:01;;;;;;;21.83;10.63;;;;;;;;;;5054189;28;20053;-77
2024/01/26 02:43:27;;;;;;;24.13;10.52;;;;;;;;;;5037251;28;20049;-76
2024/01/26 02:45:53;;;;;;;22.20;10.88;;;;;;;;;;5037291;28;20140;-76
2024/01/26 02:48:23;;;;;;;21.88;11.27;;;;;;;;;;5035663;28;20049;-76
2024/01/26 02:50:49;;;;;;;22.67;10.77;;;;;;;;;;5037063;28;20386;-77
2024/01/26 02:53:15;;;;;;;24.30;11.50;;;;;;;;;;5053621;28;20524;-77
2024/01/26 02:55:41;;;;;;;22.10;11.35;;;;;;;;;;5053880;28;20064;-77
2024/01/26 02:58:07;;;;;;;23.67;10.50;;;;;;;;;;5053839;28;20052;-76
2024/01/26 03:00:33;;;;;;;24.00;11.25;;;;;;;;;;5054007;28;20485;-78
2024/01/26 03:02:59;;;;;;;21.90;11.18;;;;;;;;;;5037856;28;20365;-76
2024/01/26 03:05:26;;;;;;;23.80;11.25;;;;;;;;;;5021092;28;20049;-75
2024/01/26 03:07:52;;;;;;;22.15;11.25;;;;;;;;;;5056811;28;20045;-78
2024/01/26 03:10:18;;;;;;;24.10;12.60;;;;;;;;;;5036170;28;20485;-77
2024/01/26 03:12:44;;;;;;;24.23;11.10;;;;;;;;;;5035986;28;20044;-78
2024/01/26 03:15:10;;;;;;;22.92;10.82;;;;;;;;;;5053703;28;20053;-77
2024/01/26 03:17:36;;;;;;;21.55;10.73;;;;;;;;;;5054342;28;20127;-78
2024/01/26 03:20:02;;;;;;;20.58;10.05;;;;;;;;;;5036748;28;20400;-78
2024/01/26 03:22:28;;;;;;;19.17;9.10;;;;;;;;;;5040332;28;20045;-78
2024/01/26 03:24:54;;;;;;;21.85;10.13;;;;;;;;;;5058786;28;20106;-75
2024/01/26 03:27:21;;;;;;;22.42;10.10;;;;;;;;;;5058666;28;20396;-74
2024/01/26 03:29:47;;;;;;;20.33;9.90;;;;;;;;;;5058495;28;20041;-77
2024/01/26 03:32:13;;;;;;;19.70;9.82;;;;;;;;;;5056933;28;20041;-79
2024/01/26 03:34:39;;;;;;;20.75;10.35;;;;;;;;;;5055581;28;20045;-75
2024/01/26 03:37:06;;;;;;;23.88;10.93;;;;;;;;;;5060764;28;20060;-76
2024/01/26 03:39:32;;;;;;;21.40;9.93;;;;;;;;;;5042795;28;20455;-77
2024/01/26 03:41:58;;;;;;;20.30;9.93;;;;;;;;;;5042386;28;20057;-77
2024/01/26 03:44:24;;;;;;;22.80;10.63;;;;;;;;;;5060019;28;20053;-76
2024/01/26 03:46:51;;;;;;;20.33;10.07;;;;;;;;;;5025791;28;20048;-76
2024/01/26 03:49:17;;;;;;;21.90;10.67;;;;;;;;;;5042057;28;20369;-76
2024/01/26 03:51:43;;;;;;;21.25;10.43;;;;;;;;;;5060570;28;20286;-76
2024/01/26 03:54:09;;;;;;;20.73;9.73;;;;;;;;;;5042671;28;20049;-80
2024/01/26 03:56:35;;;;;;;19.65;9.45;;;;;;;;;;5059799;28;20040;-77
2024/01/26 03:59:01;;;;;;;21.42;9.73;;;;;;;;;;5060546;28;20049;-77
2024/01/26 04:01:27;;;;;;;21.10;9.27;;;;;;;;;;5059629;28;20049;-81
2024/01/26 04:03:54;;;;;;;23.02;9.85;;;;;;;;;;5059887;28;20049;-76
2024/01/26 04:06:20;;;;;;;19.75;8.82;;;;;;;;;;5042244;28;20182;-76
2024/01/26 04:08:46;;;;;;;19.38;9.60;;;;;;;;;;5059598;28;20040;-75
2024/01/26 04:11:13;;;;;;;18.42;9.30;;;;;;;;;;5060626;28;20130;-79
2024/01/26 04:13:39;;;;;;;21.17;9.38;;;;;;;;;;5042116;28;20087;-79
2024/01/26 04:16:07;;;;;;;20.83;8.88;;;;;;;;;;5059805;28;20045;-76
2024/01/26 04:18:34;;;;;;;21.42;10.20;;;;;;;;;;5059566;28;20053;-80
2024/01/26 04:21:00;;;;;;;17.83;9.33;;;;;;;;;;5041830;28;20041;-75
2024/01/26 04:23:26;;;;;;;19.88;9.90;;;;;;;;;;5041746;28;20298;-77
2024/01/26 04:25:52;;;;;;;19.50;9.73;;;;;;;;;;5059782;28;20053;-76
2024/01/26 04:28:18;;;;;;;22.88;12.32;;;;;;;;;;5059277;28;20485;-75
2024/01/26 04:30:44;;;;;;;18.20;9.75;;;;;;;;;;5026468;28;20148;-77
2024/01/26 04:33:10;;;;;;;20.55;9.48;;;;;;;;;;5059796;28;20135;-78
2024/01/26 04:35:36;;;;;;;19.73;9.40;;;;;;;;;;5061153;28;20138;-79
2024/01/26 04:38:02;;;;;;;23.80;11.05;;;;;;;;;;5043575;28;20493;-77
2024/01/26 04:40:30;;;;;;;23.88;10.98;;;;;;;;;;5043597;28;20049;-77
2024/01/26 04:42:56;;;;;;;25.85;11.40;;;;;;;;;;5061453;28;20174;-79
2024/01/26 04:45:22;;;;;;;22.45;11.63;;;;;;;;;;5060901;28;20044;-76
2024/01/26 04:47:48;;;;;;;25.48;11.43;;;;;;;;;;5057388;28;20359;-80
2024/01/26 04:50:14;;;;;;;21.60;11.80;;;;;;;;;;5039462;28;20037;-78
2024/01/26 04:52:40;;;;;;;23.08;12.13;;;;;;;;;;5056414;28;20484;-79
2024/01/26 04:55:06;;;;;;;21.92;10.25;;;;;;;;;;5056179;28;20102;-78
2024/01/26 04:57:32;;;;;;;24.42;11.65;;;;;;;;;;5038809;28;20131;-77
2024/01/26 04:59:58;;;;;;;21.73;11.25;;;;;;;;;;5056033;28;20385;-78
2024/01/26 05:02:24;;;;;;;25.00;11.95;;;;;;;;;;5038129;28;20095;-76
2024/01/26 05:04:51;;;;;;;21.95;10.48;;;;;;;;;;5039239;28;20045;-81
2024/01/26 05:07:17;;;;;;;24.05;11.52;;;;;;;;;;5038113;28;20102;-78
2024/01/26 05:09:43;;;;;;;23.77;11.57;;;;;;;;;;5038284;28;20045;-79
2024/01/26 05:12:10;;;;;;;19.98;10.60;;;;;;;;;;5021576;28;20120;-77
2024/01/26 05:14:36;;;;;;;22.20;11.45;;;;;;;;;;5038071;28;20053;-78
2024/01/26 05:17:05;;;;;;;20.50;11.00;;;;;;;;;;5056031;28;20049;-80
2024/01/26 05:19:31;;;;;;;24.25;11.35;;;;;;;;;;5056138;28;20279;-79
2024/01/26 05:21:57;;;;;;;15.40;6.97;;;;;;;;;;5038320;28;20048;-79
2024/01/26 05:24:23;;;;;;;19.98;11.48;;;;;;;;;;5055811;28;20057;-80
2024/01/26 05:26:49;;;;;;;18.90;9.93;;;;;;;;;;5021906;28;20048;-76
2024/01/26 05:29:16;;;;;;;20.58;10.32;;;;;;;;;;5037764;28;20095;-79
2024/01/26 05:31:42;;;;;;;20.98;10.95;;;;;;;;;;5055436;28;20045;-78
2024/01/26 05:34:09;;;;;;;19.60;11.32;;;;;;;;;;5037927;28;20059;-78
2024/01/26 05:36:40;;;;;;;20.45;9.52;;;;;;;;;;5055950;28;20048;-78
2024/01/26 05:39:06;;;;;;;19.63;10.65;;;;;;;;;;5037946;28;20068;-76
2024/01/26 05:41:32;;;;;;;20.98;9.70;;;;;;;;;;5055761;28;20141;-76
2024/01/26 05:43:58;;;;;;;18.08;9.68;;;;;;;;;;5037479;28;20053;-78
2024/01/26 05:46:24;;;;;;;17.80;9.52;;;;;;;;;;5038361;28;20067;-77
2024/01/26 05:48:51;;;;;;;18.60;9.70;;;;;;;;;;5055089;28;20045;-78
2024/01/26 05:51:17;;;;;;;19.63;10.65;;;;;;;;;;5055586;28;20041;-78
2024/01/26 05:53:43;;;;;;;20.63;9.23;;;;;;;;;;5054953;28;20492;-77
2024/01/26 05:56:09;;;;;;;18.67;10.63;;;;;;;;;;5055617;28;20071;-77
2024/01/26 05:58:35;;;;;;;18.00;9.30;;;;;;;;;;5037099;28;20132;-77
2024/01/26 06:01:01;;;;;;;20.42;9.77;;;;;;;;;;5037957;28;20041;-75
2024/01/26 06:03:27;;;;;;;19.17;9.00;;;;;;;;;;5055192;28;20076;-76
2024/01/26 06:05:54;;;;;;;21.75;8.68;;;;;;;;;;5054884;28;20414;-78
2024/01/26 06:08:20;;;;;;;16.10;8.63;;;;;;;;;;5037774;28;20049;-78
2024/01/26 06:10:47;;;;;;;19.00;10.10;;;;;;;;;;5055034;28;20409;-77
2024/01/26 06:13:13;;;;;;;18.67;9.00;;;;;;;;;;5054801;28;20084;-79
2024/01/26 06:15:41;;;;;;;18.33;8.85;;;;;;;;;;5020468;28;20443;-76
2024/01/26 06:18:07;;;;;;;17.73;8.63;;;;;;;;;;5036952;28;20088;-74
2024/01/26 06:20:33;;;;;;;16.25;8.43;;;;;;;;;;5054373;28;20045;-78
2024/01/26 06:22:59;;;;;;;16.52;8.38;;;;;;;;;;5054641;28;20067;-76
2024/01/26 06:25:26;;;;;;;18.45;8.70;;;;;;;;;;5054370;28;20135;-75
2024/01/26 06:27:52;;;;;;;17.33;7.47;;;;;;;;;;5054199;28;20049;-74
2024/01/26 06:30:18;;;;;;;14.60;7.25;;;;;;;;;;5054637;28;20051;-75
2024/01/26 06:32:44;;;;;;;19.75;8.23;;;;;;;;;;5054329;28;20386;-76
2024/01/26 06:35:10;;;;;;;15.10;8.20;;;;;;;;;;5036839;28;20041;-75
2024/01/26 06:37:37;;;;;;;15.60;7.63;;;;;;;;;;5053947;28;20048;-74
2024/01/26 06:40:03;;;;;;;19.27;8.40;;;;;;;;;;5036829;28;20511;-74
2024/01/26 06:42:32;;;;;;;18.45;8.10;;;;;;;;;;5019871;28;20052;-74
2024/01/26 06:44:58;;;;;;;17.95;7.57;;;;;;;;;;5054368;28;20051;-75
2024/01/26 06:47:24;;;;;;;14.07;6.50;;;;;;;;;;5054003;28;20080;-75
2024/01/26 06:49:50;;;;;;;17.27;7.25;;;;;;;;;;5020394;28;20118;-73
2024/01/26 06:52:16;;;;;;;14.02;6.85;;;;;;;;;;5054327;28;20055;-74
2024/01/26 06:54:42;;;;;;;13.90;6.55;;;;;;;;;;5053811;28;20055;-73
2024/01/26 06:57:08;;;;;;;14.68;7.25;;;;;;;;;;5053777;28;20048;-74
2024/01/26 06:59:37;;;;;;;14.38;6.63;;;;;;;;;;5053843;28;20045;-73
2024/01/26 07:02:04;;;;;;;13.20;6.53;;;;;;;;;;5053439;28;20504;-74
2024/01/26 07:04:30;;;;;;;;;;;;;;;;;;5054206;28;20045;-74
2024/01/26 07:06:56;;;;;;;14.68;6.07;;;;;;;;;;5035660;28;20288;-73
2024/01/26 07:09:22;;;;;;;9.65;4.22;;;;;;;;;;5053740;28;20355;-73
2024/01/26 07:11:49;;;;;;;11.93;5.15;;;;;;;;;;5053106;28;20049;-69
2024/01/26 07:14:19;;;;;;;12.80;5.97;;;;;;;;;;5053546;28;20049;-72
2024/01/26 07:16:45;;;;;;;11.38;5.65;;;;;;;;;;5053874;28;20083;-75
2024/01/26 07:19:11;;;;;;;13.18;6.97;;;;;;;;;;5054298;28;20052;-73
2024/01/26 07:21:38;;;;;;;12.48;5.15;;;;;;;;;;5036951;28;20362;-72
2024/01/26 07:24:06;;;;;;;14.77;6.63;;;;;;;;;;5035703;28;20060;-73
2024/01/26 07:26:32;;;;;;;11.85;5.50;;;;;;;;;;5046099;28;20048;-73
2024/01/26 07:28:58;;;;;;;9.55;4.97;;;;;;;;;;5053520;28;20160;-74
2024/01/26 07:31:25;;;;;;;11.57;4.72;;;;;;;;;;5054144;28;20385;-74
2024/01/26 07:33:51;;;;;;;9.55;4.25;;;;;;;;;;5053580;28;20216;-73
2024/01/26 07:36:17;;;;;;;10.77;5.18;;;;;;;;;;5036075;28;20049;-74
2024/01/26 07:38:44;;;;;;;10.60;4.35;;;;;;;;;;5054049;28;20048;-74
2024/01/26 07:41:10;;;;;;;11.57;4.32;;;;;;;;;;5036187;28;20358;-74
2024/01/26 07:43:36;;;;;;;14.15;4.70;;;;;;;;;;5054558;28;20105;-76
2024/01/26 07:46:02;;;;;;;11.30;4.72;;;;;;;;;;5053558;28;20049;-72
2024/01/26 07:48:28;;;;;;;9.88;4.45;;;;;;;;;;5036472;28;20080;-72
2024/01/26 07:50:54;;;;;;;9.43;4.93;;;;;;;;;;5052841;28;20049;-72
2024/01/26 07:53:20;;;;;;;7.32;3.50;;;;;;;;;;5053110;28;20074;-71
2024/01/26 07:55:46;;;;;;;9.50;4.53;;;;;;;;;;5052952;28;20049;-74
2024/01/26 07:58:12;;;;;;;11.07;4.00;;;;;;;;;;5053080;28;20051;-74
2024/01/26 08:00:38;;;;;;;8.85;3.95;;;;;;;;;;5052780;28;20466;-72
2024/01/26 08:03:05;;;;;;;8.55;3.53;;;;;;;;;;5035042;28;20040;-71
2024/01/26 08:05:31;;;;;;;8.38;3.55;;;;;;;;;;5019850;28;20117;-72
2024/01/26 08:07:57;;;;;;;7.15;3.60;;;;;;;;;;5053248;28;20084;-75
2024/01/26 08:10:23;;;;;;;11.02;4.47;;;;;;;;;;5035130;28;20418;-73
2024/01/26 08:12:50;;;;;;;8.43;3.60;;;;;;;;;;5053444;28;20049;-72
2024/01/26 08:15:17;;;;;;;9.02;3.70;;;;;;;;;;5035292;28;20127;-74
2024/01/26 08:17:43;;;;;;;7.30;3.33;;;;;;;;;;5035816;28;20111;-74
2024/01/26 08:20:10;;;;;;;8.85;3.50;;;;;;;;;;5052940;28;20059;-74
2024/01/26 08:22:38;;;;;;;9.27;4.22;;;;;;;;;;5037597;28;20428;-73
2024/01/26 08:25:05;;;;;;;7.38;3.33;;;;;;;;;;5056730;28;20049;-73
2024/01/26 08:27:31;;;;;;;11.90;4.40;;;;;;;;;;5056623;28;20048;-74
2024/01/26 08:29:57;;;;;;;7.20;3.35;;;;;;;;;;5056565;28;20048;-73
2024/01/26 08:32:23;;;;;;;8.48;3.70;;;;;;;;;;5039731;28;20140;-74
2024/01/26 08:34:49;;;;;;;9.68;3.00;;;;;;;;;;5056443;28;20044;-73
2024/01/26 08:37:16;;;;;;;7.17;3.53;;;;;;;;;;5056602;28;20045;-73
2024/01/26 08:39:45;;;;;;;7.15;3.08;;;;;;;;;;5056410;28;20053;-70
2024/01/26 08:42:12;;;;;;;6.18;2.63;;;;;;;;;;5056579;28;20405;-72
2024/01/26 08:44:38;;;;;;;8.02;3.35;;;;;;;;;;5038834;28;20515;-72
2024/01/26 08:47:04;;;;;;;7.40;3.72;;;;;;;;;;5056172;28;20051;-73
2024/01/26 08:49:30;;;;;;;8.90;4.15;;;;;;;;;;5057532;28;20128;-73
2024/01/26 08:51:58;;;;;;;8.98;4.25;;;;;;;;;;5056368;28;20560;-75
2024/01/26 08:54:24;;;;;;;9.63;4.63;;;;;;;;;;5022679;28;20045;-74
2024/01/26 08:56:50;;;;;;;10.25;5.20;;;;;;;;;;5057014;28;20051;-73
2024/01/26 08:59:16;;;;;;;13.00;5.70;;;;;;;;;;5057093;28;20122;-74
2024/01/26 09:01:42;;;;;;;11.40;5.57;;;;;;;;;;5056833;28;20102;-76
2024/01/26 09:04:09;;;;;;;12.13;5.80;;;;;;;;;;5057106;28;20091;-73
2024/01/26 09:06:35;;;;;;;13.33;6.17;;;;;;;;;;5039111;28;20400;-74
2024/01/26 09:09:03;;;;;;;11.83;5.90;;;;;;;;;;5038281;28;20041;-75
2024/01/26 09:11:29;;;;;;;15.32;6.00;;;;;;;;;;5056157;28;20342;-73
2024/01/26 09:13:58;;;;;;;11.55;5.65;;;;;;;;;;5038425;28;20083;-74
2024/01/26 09:16:25;;;;;;;11.57;5.88;;;;;;;;;;5057409;28;20130;-72
2024/01/26 09:18:51;;;;;;;11.83;6.20;;;;;;;;;;5038503;28;20045;-74
2024/01/26 09:21:17;;;;;;;14.27;6.07;;;;;;;;;;5039799;28;20053;-72
2024/01/26 09:23:43;;;;;;;11.73;5.75;;;;;;;;;;5055783;28;20045;-71
2024/01/26 09:26:12;;;;;;;10.77;5.20;;;;;;;;;;5055740;28;20057;-73
2024/01/26 09:28:39;;;;;;;10.15;4.85;;;;;;;;;;5055817;28;20051;-72
2024/01/26 09:31:05;;;;;;;8.93;4.47;;;;;;;;;;5056368;28;20440;-71
2024/01/26 09:33:33;;;;;;;12.93;6.28;;;;;;;;;;5040419;28;20107;-71
2024/01/26 09:35:59;;;;;;;6.28;1.65;;;;;;;;;;5040849;28;20049;-70
2024/01/26 09:38:25;;;;;;;3.03;0.30;;;;;;;;;;5059597;28;20049;-72
2024/01/26 09:40:52;;;;;;;3.00;0.50;;;;;;;;;;5041482;28;20446;-71
2024/01/26 09:43:18;;;;;;;2.60;0.30;;;;;;;;;;5058249;28;20044;-73
2024/01/26 09:45:44;;;;;;;2.00;0.30;;;;;;;;;;5041509;28;20041;-74
2024/01/26 09:48:10;;;;;;;1.52;0.20;;;;;;;;;;5058115;28;20071;-73
2024/01/26 09:50:37;;;;;;;1.88;0.20;;;;;;;;;;5056345;28;20053;-72
2024/01/26 09:53:03;;;;;;;0.68;0.20;;;;;;;;;;5038014;28;20041;-72
2024/01/26 09:55:32;;;;;;;0.68;0.10;;;;;;;;;;5021071;28;20421;-71
2024/01/26 09:57:58;;;;;;;2.38;0.20;;;;;;;;;;5054963;28;20064;-72
2024/01/26 10:00:24;;;;;;;1.58;0.15;;;;;;;;;;5037990;28;20053;-71
2024/01/26 10:02:51;;;;;;;1.67;0.10;;;;;;;;;;5054786;28;20045;-72
2024/01/26 10:05:18;;;;;;;4.43;0.25;;;;;;;;;;5054854;28;20053;-74
2024/01/26 10:07:47;;;;;;;3.22;0.28;;;;;;;;;;5036807;28;20037;-73
2024/01/26 10:10:13;;;;;;;5.43;0.50;;;;;;;;;;5054966;28;20052;-74
2024/01/26 10:12:41;;;;;;;5.93;0.73;;;;;;;;;;5054604;28;20041;-73
2024/01/26 10:15:09;;;;;;;4.25;0.30;;;;;;;;;;5036954;28;20045;-73
2024/01/26 10:17:35;;;;;;;3.22;0.30;;;;;;;;;;5036897;28;20053;-75
2024/01/26 10:20:08;;;;;;;6.57;0.30;;;;;;;;;;5020746;28;20076;-73
2024/01/26 10:22:37;;;;;;;11.07;0.80;;;;;;;;;;5054681;28;20382;-73
2024/01/26 10:25:04;;;;;;;5.25;0.35;;;;;;;;;;5036574;28;20135;-73
2024/01/26 10:27:30;;;;;;;5.00;0.40;;;;;;;;;;5020598;28;20048;-74
2024/01/26 10:29:57;;;;;;;10.57;0.77;;;;;;;;;;5054238;28;20485;-75
2024/01/26 10:32:27;;;;;;;11.77;0.90;;;;;;;;;;5054305;28;20175;-75
2024/01/26 10:35:00;;;;;;;10.07;1.00;;;;;;;;;;5036754;28;20103;-74
2024/01/26 10:37:28;;;;;;;11.40;1.20;;;;;;;;;;5053935;28;20084;-72
2024/01/26 10:39:55;;;;;;;11.75;1.55;;;;;;;;;;5053724;28;20087;-74
2024/01/26 10:42:21;;;;;;;11.20;0.68;;;;;;;;;;5054248;28;20095;-72
2024/01/26 10:44:54;;;;;;;11.32;0.90;;;;;;;;;;5053249;28;20045;-71
2024/01/26 10:47:21;;;;;;;12.57;0.90;;;;;;;;;;5053973;28;20370;-72
2024/01/26 10:49:51;;;;;;;10.45;1.13;;;;;;;;;;5054619;28;20041;-71
2024/01/26 10:52:20;;;;;;;18.73;1.13;;;;;;;;;;5035995;28;20037;-70
2024/01/26 10:54:50;;;;;;;15.43;1.25;;;;;;;;;;5036956;28;20183;-71
2024/01/26 10:57:17;;;;;;;13.38;0.88;;;;;;;;;;5053584;28;20044;-71
2024/01/26 10:59:43;;;;;;;12.20;0.95;;;;;;;;;;5053575;28;20056;-73
2024/01/26 11:02:17;;;;;;;15.80;1.30;;;;;;;;;;5054268;28;20110;-73
2024/01/26 11:04:44;;;;;;;10.63;1.83;;;;;;;;;;5053503;28;20059;-73
2024/01/26 11:07:10;;;;;;;;;;;;;;;;;;5053887;28;20045;-72
2024/01/26 11:09:41;;;;;;;5.13;0.70;;;;;;;;;;5053522;28;19921;-73
2024/01/26 11:12:25;;;;;;;10.90;0.82;;;;;;;;;;5054430;28;20041;-74
2024/01/26 11:15:08;;;;;;;15.13;1.15;;;;;;;;;;5036490;28;20057;-73
2024/01/26 11:17:51;;;;;;;17.60;1.40;;;;;;;;;;5035944;28;20052;-74
2024/01/26 11:20:21;;;;;;;10.25;0.85;;;;;;;;;;5053027;28;20492;-72
2024/01/26 11:22:57;;;;;;;17.55;1.63;;;;;;;;;;5053690;28;20508;-72
2024/01/26 11:25:23;;;;;;;9.52;1.02;;;;;;;;;;5054096;28;20522;-72
2024/01/26 11:27:57;;;;;;;15.03;1.43;;;;;;;;;;5019686;28;20504;-73
2024/01/26 11:30:24;;;;;;;16.10;1.33;;;;;;;;;;5035079;28;20049;-74
2024/01/26 11:32:50;;;;;;;9.30;1.30;;;;;;;;;;5035730;28;20044;-71
2024/01/26 11:35:16;;;;;;;13.48;1.25;;;;;;;;;;5020033;28;20060;-74
2024/01/26 11:37:43;;;;;;;12.90;1.38;;;;;;;;;;5053249;28;20148;-75
2024/01/26 11:40:10;;;;;;;15.68;1.35;;;;;;;;;;5035335;28;20053;-73
2024/01/26 11:42:40;;;;;;;8.02;0.52;;;;;;;;;;5053280;28;20049;-73
2024/01/26 11:45:09;;;;;;;15.95;1.35;;;;;;;;;;5053184;28;20044;-76
2024/01/26 11:47:39;;;;;;;16.35;1.38;;;;;;;;;;5035603;28;20049;-74
2024/01/26 11:50:11;;;;;;;17.30;1.77;;;;;;;;;;5053845;28;20361;-74
2024/01/26 11:52:38;;;;;;;15.85;1.52;;;;;;;;;;5035969;28;20465;-73
2024/01/26 11:55:06;;;;;;;6.97;0.60;;;;;;;;;;5035880;28;20049;-76
2024/01/26 11:57:32;;;;;;;11.95;1.08;;;;;;;;;;5056050;28;20040;-72
2024/01/26 12:00:06;;;;;;;14.55;1.20;;;;;;;;;;5039274;28;20045;-76
2024/01/26 12:02:33;;;;;;;10.40;0.77;;;;;;;;;;5040299;28;20049;-73
2024/01/26 12:04:59;;;;;;;14.30;1.20;;;;;;;;;;5023587;28;20082;-74
2024/01/26 12:07:25;;;;;;;14.02;1.63;;;;;;;;;;5056955;28;20049;-74
2024/01/26 12:09:51;;;;;;;12.35;1.60;;;;;;;;;;5038929;28;20044;-75
2024/01/26 12:12:18;;;;;;;9.50;1.13;;;;;;;;;;5057498;28;20088;-75
2024/01/26 12:14:44;;;;;;;12.20;0.85;;;;;;;;;;5039206;28;20056;-73
2024/01/26 12:17:11;;;;;;;21.90;2.70;;;;;;;;;;5039197;28;20132;-75
2024/01/26 12:19:40;;;;;;;10.20;1.73;;;;;;;;;;5022369;28;20302;-73
2024/01/26 12:22:07;;;;;;;9.88;0.85;;;;;;;;;;5039853;28;20048;-74
2024/01/26 12:24:34;;;;;;;12.88;1.30;;;;;;;;;;5039734;28;20087;-73
2024/01/26 12:27:02;;;;;;;12.32;1.35;;;;;;;;;;5056632;28;20045;-72
2024/01/26 12:29:33;;;;;;;7.97;0.68;;;;;;;;;;5038641;28;20048;-73
2024/01/26 12:32:05;;;;;;;19.95;2.30;;;;;;;;;;5056578;28;20045;-74
2024/01/26 12:34:35;;;;;;;10.10;1.00;;;;;;;;;;5057252;28;20373;-73
2024/01/26 12:37:01;;;;;;;15.40;1.45;;;;;;;;;;5056561;28;20053;-74
2024/01/26 12:39:30;;;;;;;12.52;1.50;;;;;;;;;;5056136;28;20386;-75
2024/01/26 12:41:59;;;;;;;11.75;1.75;;;;;;;;;;5023070;28;20057;-73
2024/01/26 12:44:29;;;;;;;15.77;1.35;;;;;;;;;;5039242;28;20548;-75
2024/01/26 12:46:56;;;;;;;11.70;1.35;;;;;;;;;;5038979;28;20045;-74
2024/01/26 12:49:23;;;;;;;14.45;1.92;;;;;;;;;;5038912;28;20048;-73
2024/01/26 12:51:49;;;;;;;14.98;1.58;;;;;;;;;;5055833;28;20175;-76
2024/01/26 12:54:15;;;;;;;8.85;0.80;;;;;;;;;;5038533;28;20041;-75
2024/01/26 12:56:41;;;;;;;14.55;1.75;;;;;;;;;;5056197;28;20124;-74
2024/01/26 12:59:08;;;;;;;16.57;1.53;;;;;;;;;;5022232;28;20041;-74
2024/01/26 13:01:35;;;;;;;9.90;1.02;;;;;;;;;;5038361;28;20053;-74
2024/01/26 13:04:01;;;;;;;9.68;1.13;;;;;;;;;;5056162;28;20048;-72
2024/01/26 13:06:27;;;;;;;15.93;1.30;;;;;;;;;;5038665;28;20085;-74
2024/01/26 13:08:53;;;;;;;15.93;1.95;;;;;;;;;;5054577;28;20045;-75
2024/01/26 13:11:20;;;;;;;14.18;1.20;;;;;;;;;;5021816;28;20183;-74
2024/01/26 13:13:46;;;;;;;17.83;1.45;;;;;;;;;;5055682;28;20048;-75
2024/01/26 13:16:12;;;;;;;14.68;1.45;;;;;;;;;;5055780;28;20067;-75
2024/01/26 13:18:43;;;;;;;18.58;1.40;;;;;;;;;;5037963;28;20055;-72
2024/01/26 13:21:09;;;;;;;14.00;1.33;;;;;;;;;;5056604;28;20451;-74
2024/01/26 13:23:35;;;;;;;18.05;1.33;;;;;;;;;;5055594;28;20136;-74
2024/01/26 13:26:02;;;;;;;13.10;1.17;;;;;;;;;;5021503;28;20084;-73
2024/01/26 13:28:28;;;;;;;10.82;1.02;;;;;;;;;;5056318;28;20413;-73
2024/01/26 13:30:54;;;;;;;11.25;1.42;;;;;;;;;;5037910;28;20497;-74
2024/01/26 13:33:21;;;;;;;8.88;1.10;;;;;;;;;;5055425;28;20092;-73
2024/01/26 13:35:48;;;;;;;11.63;1.20;;;;;;;;;;5056188;28;20048;-73
2024/01/26 13:38:14;;;;;;;13.50;0.75;;;;;;;;;;5038563;28;20110;-73
2024/01/26 13:40:40;;;;;;;13.77;1.05;;;;;;;;;;5055267;28;20508;-72
2024/01/26 13:43:07;;;;;;;10.32;0.70;;;;;;;;;;5037059;28;20551;-74
2024/01/26 13:45:33;;;;;;;6.75;0.47;;;;;;;;;;5037901;28;20482;-76
2024/01/26 13:48:04;;;;;;;6.63;0.30;;;;;;;;;;5038020;28;20044;-74
2024/01/26 13:50:33;;;;;;;6.90;0.45;;;;;;;;;;5055572;28;20674;-73
2024/01/26 13:53:00;;;;;;;3.13;0.20;;;;;;;;;;5055255;28;20437;-73
2024/01/26 13:55:26;;;;;;;6.80;0.40;;;;;;;;;;5055036;28;20052;-72
2024/01/26 13:57:52;;;;;;;7.78;0.40;;;;;;;;;;5055686;28;20077;-74
2024/01/26 14:00:19;;;;;;;6.70;0.47;;;;;;;;;;5055124;28;20389;-72
2024/01/26 14:02:45;;;;;;;6.28;0.38;;;;;;;;;;5055559;28;20634;-72
2024/01/26 14:05:11;;;;;;;10.73;0.77;;;;;;;;;;5054831;28;20055;-72
2024/01/26 14:07:37;;;;;;;9.40;0.60;;;;;;;;;;5054653;28;20049;-73
2024/01/26 14:10:04;;;;;;;12.03;0.73;;;;;;;;;;5036863;28;20037;-73
2024/01/26 14:12:30;;;;;;;12.85;0.80;;;;;;;;;;5054695;28;20597;-73
2024/01/26 14:14:57;;;;;;;11.48;1.02;;;;;;;;;;5036595;28;20091;-73
2024/01/26 14:17:23;;;;;;;12.30;0.70;;;;;;;;;;5055346;28;20394;-74
2024/01/26 14:19:50;;;;;;;7.97;0.65;;;;;;;;;;5054176;28;20037;-72
2024/01/26 14:22:16;;;;;;;11.45;0.70;;;;;;;;;;5054436;28;20095;-73
2024/01/26 14:24:43;;;;;;;9.80;0.60;;;;;;;;;;5020310;28;20132;-72
2024/01/26 14:27:12;;;;;;;;;;;;;;;;;;5038037;28;20401;-72